Time,TemperatureF,DewpointF,PressureIn,WindDirection,WindDirectionDegrees,WindSpeedMPH,WindSpeedGustMPH,Humidity,HourlyPrecipIn,Conditions,Clouds,dailyrainin,SoftwareType,DateUTC
2013-07-03 00:11:00,58.6,52.5,29.98,West,270,0.0,0.0,80,0.00,,,-99.99,open3600,2013-07-02 22:11:00,
2013-07-03 00:27:00,58.3,52.5,29.98,West,270,0.0,0.0,81,0.00,,,-99.99,open3600,2013-07-02 22:27:00,
2013-07-03 00:42:00,57.7,52.0,29.97,West,270,0.0,0.0,81,0.00,,,-99.99,open3600,2013-07-02 22:42:00,
2013-07-03 00:58:00,57.0,51.6,29.98,West,270,0.0,0.0,82,0.00,,,-99.99,open3600,2013-07-02 22:58:00,
2013-07-03 01:13:00,56.8,51.4,29.98,West,270,0.0,0.0,82,0.00,,,-99.99,open3600,2013-07-02 23:13:00,
2013-07-03 01:29:00,56.5,51.1,29.97,West,270,0.0,0.0,82,0.00,,,-99.99,open3600,2013-07-02 23:29:00,
2013-07-03 01:44:00,55.9,50.9,29.97,West,270,0.0,0.0,83,0.00,,,-99.99,open3600,2013-07-02 23:44:00,
2013-07-03 02:00:00,55.6,50.9,29.96,West,270,0.0,0.0,84,0.00,,,-99.99,open3600,2013-07-03 00:00:00,
2013-07-03 02:16:00,55.6,51.1,29.96,West,270,0.0,0.0,85,0.00,,,-99.99,open3600,2013-07-03 00:16:00,
2013-07-03 02:31:00,55.8,51.3,29.96,West,270,0.0,0.0,85,0.00,,,-99.99,open3600,2013-07-03 00:31:00,
2013-07-03 02:47:00,55.6,51.1,29.96,West,270,0.0,0.0,85,0.00,,,-99.99,open3600,2013-07-03 00:47:00,
2013-07-03 03:02:00,55.2,50.7,29.96,West,270,0.0,0.0,85,0.00,,,-99.99,open3600,2013-07-03 01:02:00,
2013-07-03 03:18:00,55.0,50.5,29.96,West,270,0.0,0.0,85,0.00,,,-99.99,open3600,2013-07-03 01:18:00,
2013-07-03 03:34:00,54.7,50.5,29.95,West,270,0.0,0.0,86,0.00,,,-99.99,open3600,2013-07-03 01:34:00,
2013-07-03 03:52:00,54.7,50.5,29.95,West,270,0.0,0.0,86,0.00,,,-99.99,open3600,2013-07-03 01:52:00,
2013-07-03 04:10:00,54.9,50.7,29.95,West,270,0.0,0.0,86,0.00,,,-99.99,open3600,2013-07-03 02:10:00,
2013-07-03 04:26:00,55.6,51.8,29.97,SW,225,0.0,0.0,87,0.00,,,-99.99,open3600,2013-07-03 02:26:00,
2013-07-03 04:59:00,55.2,51.4,29.95,SW,225,0.0,0.0,87,0.00,,,-99.99,open3600,2013-07-03 02:59:00,
2013-07-03 08:14:00,59.0,55.4,29.93,NW,315,0.0,0.0,88,-99.99,,,-99.99,open3600,2013-07-03 06:14:00,
2013-07-03 08:30:00,59.4,55.8,29.93,NW,315,0.0,0.0,88,-99.99,,,-99.99,open3600,2013-07-03 06:30:00,
2013-07-03 08:45:00,59.9,56.3,29.93,NW,315,0.0,0.0,88,0.00,,,-99.99,open3600,2013-07-03 06:45:00,
2013-07-03 09:01:00,61.0,57.4,29.93,NW,315,0.0,0.0,88,0.00,,,-99.99,open3600,2013-07-03 07:01:00,
2013-07-03 09:16:00,61.5,57.9,29.93,WNW,292,0.0,0.0,88,0.00,,,-99.99,open3600,2013-07-03 07:16:00,
2013-07-03 09:32:00,61.9,57.9,29.94,WNW,292,0.0,0.0,87,0.00,,,-99.99,open3600,2013-07-03 07:32:00,
2013-07-03 09:47:00,61.9,57.9,29.93,South,180,0.0,0.0,87,0.00,,,-99.99,open3600,2013-07-03 07:47:00,
2013-07-03 10:03:00,62.1,58.1,29.93,South,180,0.0,0.0,87,0.00,,,-99.99,open3600,2013-07-03 08:03:00,
2013-07-03 10:21:00,62.2,58.3,29.92,South,180,0.0,0.0,87,0.00,,,-99.99,open3600,2013-07-03 08:21:00,
2013-07-03 11:09:00,64.0,60.1,29.93,South,180,0.0,0.0,87,-99.99,,,-99.99,open3600,2013-07-03 09:09:00,
2013-07-03 11:41:00,69.4,62.2,29.93,ENE,68,0.0,0.0,78,0.00,,,-99.99,open3600,2013-07-03 09:41:00,
2013-07-03 11:58:00,70.7,61.2,29.93,SE,135,0.0,0.0,72,0.00,,,-99.99,open3600,2013-07-03 09:58:00,
2013-07-03 12:30:00,69.6,61.0,29.93,SE,135,0.0,0.0,74,0.00,,,-99.99,open3600,2013-07-03 10:30:00,
2013-07-03 12:46:00,69.4,60.8,29.93,SE,135,0.0,0.0,74,0.00,,,-99.99,open3600,2013-07-03 10:46:00,
2013-07-03 13:02:00,70.0,61.3,29.93,ESE,112,0.0,0.0,74,0.00,,,-99.99,open3600,2013-07-03 11:02:00,
2013-07-03 13:17:00,70.3,61.7,29.93,ESE,112,0.0,0.0,74,0.00,,,-99.99,open3600,2013-07-03 11:17:00,
2013-07-03 13:33:00,70.0,61.3,29.93,South,180,0.0,0.0,74,0.00,,,-99.99,open3600,2013-07-03 11:33:00,
2013-07-03 14:07:00,71.1,62.8,29.93,SSE,158,0.0,0.0,75,0.00,,,-99.99,open3600,2013-07-03 12:07:00,
2013-07-03 14:23:00,71.1,62.8,29.93,SSE,158,0.0,0.0,75,0.00,,,-99.99,open3600,2013-07-03 12:23:00,
2013-07-03 14:38:00,71.8,63.9,29.93,SSE,158,0.0,0.0,76,0.00,,,-99.99,open3600,2013-07-03 12:38:00,
2013-07-03 14:54:00,72.7,62.4,29.93,South,180,0.0,0.0,70,0.00,,,-99.99,open3600,2013-07-03 12:54:00,
2013-07-03 15:09:00,72.1,63.0,29.93,SSW,202,0.0,0.0,73,0.00,,,-99.99,open3600,2013-07-03 13:09:00,
2013-07-03 15:25:00,71.8,62.2,29.93,SSW,202,0.0,0.0,72,0.00,,,-99.99,open3600,2013-07-03 13:25:00,
2013-07-03 15:41:00,72.3,63.1,29.93,SSW,202,0.0,0.0,73,0.00,,,-99.99,open3600,2013-07-03 13:41:00,
2013-07-03 15:56:00,73.2,62.8,29.92,SSW,202,0.0,0.0,70,0.00,,,-99.99,open3600,2013-07-03 13:56:00,
2013-07-03 16:12:00,73.8,62.1,29.92,WSW,248,0.7,0.0,67,0.00,,,-99.99,open3600,2013-07-03 14:12:00,
2013-07-03 16:28:00,75.0,60.6,29.93,WSW,248,0.6,6.0,61,0.00,,,-99.99,open3600,2013-07-03 14:28:00,
2013-07-03 16:43:00,75.7,61.9,29.93,WSW,248,0.1,0.0,62,0.00,,,-99.99,open3600,2013-07-03 14:43:00,
2013-07-03 16:59:00,74.7,60.8,29.93,NW,315,0.7,0.0,62,0.00,,,-99.99,open3600,2013-07-03 14:59:00,
2013-07-03 17:47:00,73.0,59.7,29.93,WNW,292,0.0,0.0,63,0.00,,,-99.99,open3600,2013-07-03 15:47:00,
2013-07-03 18:02:00,72.5,60.4,29.93,WNW,292,0.0,0.0,66,0.00,,,-99.99,open3600,2013-07-03 16:02:00,
2013-07-03 18:18:00,71.6,60.1,29.92,WNW,292,0.0,0.0,67,0.00,,,-99.99,open3600,2013-07-03 16:18:00,
2013-07-03 18:33:00,71.1,60.8,29.92,WNW,292,0.0,0.0,70,0.00,,,-99.99,open3600,2013-07-03 16:33:00,
2013-07-03 18:49:00,70.7,60.1,29.92,West,270,0.0,0.0,69,0.00,,,-99.99,open3600,2013-07-03 16:49:00,
2013-07-03 19:06:00,70.9,61.3,29.93,WNW,292,0.0,0.0,72,0.00,,,-99.99,open3600,2013-07-03 17:06:00,
2013-07-03 19:22:00,70.5,61.9,29.93,WNW,292,0.0,0.0,74,0.00,,,-99.99,open3600,2013-07-03 17:22:00,
2013-07-03 19:37:00,70.0,61.3,29.94,WNW,292,0.0,0.0,74,0.00,,,-99.99,open3600,2013-07-03 17:37:00,
2013-07-03 19:53:00,69.6,61.0,29.94,WNW,292,0.0,0.0,74,0.00,,,-99.99,open3600,2013-07-03 17:53:00,
2013-07-03 20:09:00,69.4,61.5,29.94,WNW,292,0.0,0.0,76,0.00,,,-99.99,open3600,2013-07-03 18:09:00,
2013-07-03 20:26:00,69.1,60.8,29.94,NW,315,0.0,0.0,75,0.00,,,-99.99,open3600,2013-07-03 18:26:00,
2013-07-03 20:42:00,68.7,60.4,29.95,WNW,292,0.0,0.0,75,0.00,,,-99.99,open3600,2013-07-03 18:42:00,
2013-07-03 20:57:00,68.2,59.9,29.96,WSW,248,0.8,0.0,75,0.00,,,-99.99,open3600,2013-07-03 18:57:00,
2013-07-03 21:13:00,67.6,59.0,29.97,WSW,248,0.0,0.0,74,0.00,,,-99.99,open3600,2013-07-03 19:13:00,
2013-07-03 21:45:00,66.9,59.2,29.98,WSW,248,0.0,0.0,76,0.00,,,-99.99,open3600,2013-07-03 19:45:00,
2013-07-03 22:01:00,66.6,59.2,29.99,WSW,248,0.0,0.0,77,0.00,,,-99.99,open3600,2013-07-03 20:01:00,
2013-07-03 22:16:00,66.2,59.2,29.99,WSW,248,0.0,0.0,78,0.00,,,-99.99,open3600,2013-07-03 20:16:00,
2013-07-03 22:32:00,65.8,59.2,29.99,WSW,248,0.0,0.0,79,0.00,,,-99.99,open3600,2013-07-03 20:32:00,
2013-07-03 22:48:00,65.3,59.0,29.99,WSW,248,0.0,0.0,80,0.00,,,-99.99,open3600,2013-07-03 20:48:00,
2013-07-03 23:03:00,64.9,59.0,29.99,West,270,0.0,0.0,81,0.00,,,-99.99,open3600,2013-07-03 21:03:00,
2013-07-03 23:19:00,64.8,59.2,29.99,WNW,292,0.0,0.0,82,0.00,,,-99.99,open3600,2013-07-03 21:19:00,
2013-07-03 23:52:00,64.2,59.0,30.00,West,270,0.0,0.0,83,0.00,,,-99.99,open3600,2013-07-03 21:52:00,